Time;durP1;ratioP1;P1;durP2;ratioP2;P2;SDS_P1;SDS_P2;PMS_P1;PMS_P2;Temp;Humidity;BMP_temperature;BMP_pressure;BME280_temperature;BME280_humidity;BME280_pressure;Samples;Min_cycle;Max_cycle;Signal;HPM_P1;HPM_P2
2023/10/18 00:00:57;;;;;;;1.63;1.52;;;7.10;99.90;;;;;;5070956;28;20207;-65
2023/10/18 00:03:28;;;;;;;1.90;1.70;;;7.10;99.90;;;;;;5071101;28;20200;-65
2023/10/18 00:05:57;;;;;;;2.63;1.80;;;7.10;99.90;;;;;;5070937;28;20234;-65
2023/10/18 00:08:28;;;;;;;1.40;1.30;;;7.00;99.90;;;;;;5070916;28;20206;-63
2023/10/18 00:11:00;;;;;;;2.67;1.83;;;7.20;99.90;;;;;;5070850;28;20230;-64
2023/10/18 00:13:27;;;;;;;1.90;1.80;;;7.10;99.90;;;;;;5072170;28;20219;-65
2023/10/18 00:16:01;;;;;;;2.30;2.10;;;7.20;99.90;;;;;;5070844;28;20207;-65
2023/10/18 00:18:29;;;;;;;1.75;1.45;;;7.20;99.90;;;;;;5070781;28;20265;-63
2023/10/18 00:21:01;;;;;;;1.80;1.65;;;7.20;99.90;;;;;;5077572;28;20202;-65
2023/10/18 00:23:31;;;;;;;1.60;1.50;;;7.10;99.90;;;;;;5111359;28;20198;-65
2023/10/18 00:26:04;;;;;;;2.25;1.52;;;7.10;99.90;;;;;;5080700;28;20281;-64
2023/10/18 00:28:34;;;;;;;3.38;2.33;;;7.10;99.90;;;;;;5070689;28;20208;-65
2023/10/18 00:31:11;;;;;;;1.75;1.45;;;7.10;99.90;;;;;;5070343;28;20670;-65
2023/10/18 00:33:39;;;;;;;1.70;1.60;;;6.90;99.90;;;;;;5070863;28;20252;-65
2023/10/18 00:36:10;;;;;;;1.80;1.55;;;6.80;99.90;;;;;;5070888;28;20572;-65
2023/10/18 00:38:39;;;;;;;1.80;1.70;;;6.80;99.90;;;;;;5072161;28;20207;-64
2023/10/18 00:41:10;;;;;;;1.98;1.70;;;6.80;99.90;;;;;;5070251;28;20214;-64
2023/10/18 00:43:38;;;;;;;3.13;2.35;;;6.80;99.90;;;;;;5070766;28;20793;-65
2023/10/18 00:46:07;;;;;;;4.60;2.20;;;6.90;99.90;;;;;;5070522;28;20200;-65
2023/10/18 00:48:35;;;;;;;3.35;1.42;;;6.90;99.90;;;;;;5070512;28;20622;-64
2023/10/18 00:51:05;;;;;;;2.20;2.00;;;6.90;99.90;;;;;;5078826;28;20310;-65
2023/10/18 00:53:33;;;;;;;1.60;1.50;;;6.90;99.90;;;;;;5102571;28;20224;-65
2023/10/18 00:56:05;;;;;;;2.70;2.28;;;6.80;99.90;;;;;;5075415;28;20248;-64
2023/10/18 00:58:34;;;;;;;2.35;2.03;;;6.80;99.90;;;;;;5070591;28;20204;-64
2023/10/18 01:01:08;;;;;;;5.13;1.48;;;6.70;99.90;;;;;;5073191;28;20253;-63
2023/10/18 01:03:38;;;;;;;1.65;1.40;;;6.70;99.90;;;;;;5074691;28;20234;-64
2023/10/18 01:06:09;;;;;;;1.90;1.80;;;6.70;99.90;;;;;;5074301;28;20218;-66
2023/10/18 01:08:38;;;;;;;2.63;1.88;;;6.70;99.90;;;;;;5074207;28;20203;-65
2023/10/18 01:11:10;;;;;;;1.73;1.60;;;6.70;99.90;;;;;;5074034;28;20253;-65
2023/10/18 01:13:40;;;;;;;2.58;2.38;;;6.70;99.90;;;;;;5074364;28;20246;-65
2023/10/18 01:16:14;;;;;;;2.90;2.33;;;6.60;99.90;;;;;;5074312;28;20199;-64
2023/10/18 01:18:44;;;;;;;2.13;1.77;;;6.60;99.90;;;;;;5074203;28;20579;-65
2023/10/18 01:21:16;;;;;;;2.28;1.90;;;6.60;99.90;;;;;;5084724;28;20301;-66
2023/10/18 01:23:49;;;;;;;3.17;1.70;;;6.50;99.90;;;;;;5110295;28;20202;-65
2023/10/18 01:26:19;;;;;;;2.55;1.48;;;6.50;99.90;;;;;;5081543;28;20237;-64
2023/10/18 01:28:47;;;;;;;2.53;1.92;;;6.50;99.90;;;;;;5074166;28;20211;-64
2023/10/18 01:31:16;;;;;;;2.10;1.75;;;6.50;99.90;;;;;;5073546;28;20226;-64
2023/10/18 01:33:46;;;;;;;2.00;1.80;;;6.50;99.90;;;;;;5074011;28;20277;-64
2023/10/18 01:36:15;;;;;;;2.33;1.65;;;6.50;99.90;;;;;;5073928;28;20245;-64
2023/10/18 01:38:46;;;;;;;2.72;2.10;;;6.40;99.90;;;;;;5085040;28;20531;-64
2023/10/18 01:41:16;;;;;;;6.10;2.15;;;6.40;99.90;;;;;;5074863;28;20268;-65
2023/10/18 01:43:47;;;;;;;4.05;1.90;;;6.40;99.90;;;;;;5074529;28;20231;-65
2023/10/18 01:46:16;;;;;;;1.80;1.70;;;6.40;99.90;;;;;;5074893;28;20306;-65
2023/10/18 01:48:50;;;;;;;3.05;1.90;;;6.30;99.90;;;;;;5073637;28;20215;-65
2023/10/18 01:51:19;;;;;;;3.70;2.17;;;6.30;99.90;;;;;;5085328;28;20206;-65
2023/10/18 01:53:50;;;;;;;3.75;2.20;;;6.40;99.90;;;;;;5106907;28;20228;-64
2023/10/18 01:56:20;;;;;;;4.88;2.03;;;6.40;99.90;;;;;;5075445;28;20333;-64
2023/10/18 01:58:49;;;;;;;3.72;2.05;;;6.40;99.90;;;;;;5073457;28;20307;-65
2023/10/18 02:01:17;;;;;;;2.40;1.95;;;6.30;99.90;;;;;;5073074;28;20215;-64
2023/10/18 02:03:49;;;;;;;2.97;1.42;;;6.20;99.90;;;;;;5073504;28;20254;-64
2023/10/18 02:06:19;;;;;;;2.13;1.92;;;6.20;99.90;;;;;;5073420;28;20596;-65
2023/10/18 02:08:48;;;;;;;2.65;2.13;;;6.20;99.90;;;;;;5073365;28;20203;-65
2023/10/18 02:11:16;;;;;;;2.47;1.83;;;6.20;99.90;;;;;;5072215;28;20563;-64
2023/10/18 02:13:45;;;;;;;2.30;2.10;;;6.20;99.90;;;;;;5073247;28;20225;-64
2023/10/18 02:16:15;;;;;;;2.20;1.95;;;6.20;99.90;;;;;;5073165;28;20199;-66
2023/10/18 02:18:49;;;;;;;2.10;1.90;;;6.10;99.90;;;;;;5073172;28;20215;-65
2023/10/18 02:21:21;;;;;;;1.77;1.67;;;6.20;99.90;;;;;;5084214;28;20210;-65
2023/10/18 02:23:51;;;;;;;2.08;1.63;;;6.10;99.90;;;;;;5111762;28;20623;-65
2023/10/18 02:26:31;;;;;;;2.22;2.00;;;6.20;99.90;;;;;;5079214;28;20203;-64
2023/10/18 02:29:00;;;;;;;3.35;2.03;;;6.10;99.90;;;;;;5073014;28;20209;-65
2023/10/18 02:31:30;;;;;;;3.10;1.90;;;6.10;99.90;;;;;;5072437;28;20215;-65
2023/10/18 02:33:58;;;;;;;3.38;2.13;;;6.10;99.90;;;;;;5072939;28;20690;-65
2023/10/18 02:36:33;;;;;;;3.28;2.40;;;6.10;99.90;;;;;;5072726;28;20206;-65
2023/10/18 02:39:01;;;;;;;3.55;2.38;;;6.10;99.90;;;;;;5072762;28;20207;-65
2023/10/18 02:41:29;;;;;;;3.28;2.22;;;6.10;99.90;;;;;;5072484;28;20224;-64
2023/10/18 02:43:58;;;;;;;2.28;2.08;;;6.20;99.90;;;;;;5075241;28;20297;-63
2023/10/18 02:46:26;;;;;;;2.58;1.92;;;6.20;99.90;;;;;;5072536;28;20291;-63
2023/10/18 02:49:00;;;;;;;2.22;2.03;;;6.20;99.90;;;;;;5072394;28;20276;-64
2023/10/18 02:51:29;;;;;;;4.55;2.00;;;6.20;99.90;;;;;;5086463;28;20715;-65
2023/10/18 02:54:07;;;;;;;2.75;2.08;;;6.20;99.90;;;;;;5112794;28;20289;-66
2023/10/18 02:56:37;;;;;;;2.65;1.85;;;6.20;99.90;;;;;;5072461;28;20211;-65
2023/10/18 02:59:07;;;;;;;3.45;2.30;;;6.20;99.90;;;;;;5072359;28;20218;-65
2023/10/18 03:01:36;;;;;;;3.50;1.85;;;6.20;99.90;;;;;;5072384;28;20281;-65
2023/10/18 03:04:08;;;;;;;4.13;3.30;;;6.20;99.90;;;;;;5072471;28;20294;-64
2023/10/18 03:06:37;;;;;;;3.58;2.10;;;6.20;99.90;;;;;;5072420;28;20737;-64
2023/10/18 03:09:06;;;;;;;2.97;2.00;;;6.30;99.90;;;;;;5071949;28;20246;-65
2023/10/18 03:11:34;;;;;;;5.22;2.40;;;6.20;99.90;;;;;;5072022;28;20265;-65
2023/10/18 03:14:02;;;;;;;2.58;1.75;;;6.30;99.90;;;;;;5072101;28;20210;-65
2023/10/18 03:16:39;;;;;;;1.73;1.63;;;6.30;99.90;;;;;;5071909;28;20198;-65
2023/10/18 03:19:12;;;;;;;2.10;2.00;;;6.20;99.90;;;;;;5072077;28;20214;-63
2023/10/18 03:21:41;;;;;;;2.15;1.95;;;6.20;99.90;;;;;;5085163;28;20228;-65
2023/10/18 03:24:12;;;;;;;2.13;1.50;;;6.20;99.90;;;;;;5104110;28;20220;-64
2023/10/18 03:26:41;;;;;;;2.35;2.15;;;6.10;99.90;;;;;;5079610;28;20552;-64
2023/10/18 03:29:12;;;;;;;2.92;2.65;;;6.10;99.90;;;;;;5071591;28;20207;-65
2023/10/18 03:31:43;;;;;;;1.70;1.60;;;6.00;99.90;;;;;;5071368;28;20234;-64
2023/10/18 03:34:18;;;;;;;2.17;1.75;;;6.00;99.90;;;;;;5114729;22;20250;-68
2023/10/18 03:36:52;;;;;;;4.18;2.30;;;6.00;99.90;;;;;;5051452;28;20690;-68
2023/10/18 03:39:21;;;;;;;2.00;1.80;;;5.90;99.90;;;;;;5042935;28;20199;-69
2023/10/18 03:41:50;;;;;;;3.33;2.03;;;5.90;99.90;;;;;;5048897;28;20568;-68
2023/10/18 03:44:22;;;;;;;2.10;1.80;;;5.90;99.90;;;;;;5049084;28;20236;-69
2023/10/18 03:46:51;;;;;;;4.88;2.30;;;5.90;99.90;;;;;;5028425;28;20308;-68
2023/10/18 03:49:30;;;;;;;6.00;2.90;;;5.80;99.90;;;;;;5036205;28;20521;-69
2023/10/18 03:52:05;;;;;;;2.58;1.90;;;5.90;99.90;;;;;;5018058;28;20204;-68
2023/10/18 03:54:44;;;;;;;3.88;2.22;;;5.80;99.90;;;;;;5025954;28;20329;-69
2023/10/18 03:57:16;;;;;;;2.03;1.80;;;5.70;99.90;;;;;;5023483;28;20215;-69
2023/10/18 03:59:46;;;;;;;2.25;2.00;;;5.70;99.90;;;;;;5037073;28;20204;-69
2023/10/18 04:02:26;;;;;;;2.63;2.42;;;5.70;99.90;;;;;;5032259;28;20201;-70
2023/10/18 04:05:13;;;;;;;2.05;1.95;;;5.70;99.90;;;;;;5027941;28;20869;-70
2023/10/18 04:07:42;;;;;;;2.10;2.00;;;5.70;99.90;;;;;;5035871;28;20207;-70
2023/10/18 04:10:12;;;;;;;2.92;2.33;;;5.70;99.90;;;;;;5042715;28;20204;-70
2023/10/18 04:12:43;;;;;;;2.67;2.13;;;5.70;99.90;;;;;;5029243;28;20227;-70
2023/10/18 04:15:21;;;;;;;2.72;2.28;;;5.70;99.90;;;;;;5050132;28;20233;-68
2023/10/18 04:18:02;;;;;;;2.40;2.20;;;5.70;99.90;;;;;;5033006;28;20204;-70
2023/10/18 04:20:32;;;;;;;4.63;3.38;;;5.60;99.90;;;;;;5037532;28;20251;-70
2023/10/18 04:23:12;;;;;;;3.05;2.30;;;5.60;99.90;;;;;;5040063;28;20578;-69
2023/10/18 04:25:40;;;;;;;6.65;2.63;;;5.60;99.90;;;;;;5019346;28;20650;-70
2023/10/18 04:28:10;;;;;;;2.97;2.60;;;5.60;99.90;;;;;;5036753;28;20268;-69
2023/10/18 04:30:38;;;;;;;5.45;2.45;;;5.60;99.90;;;;;;5014204;28;20208;-70
2023/10/18 04:33:24;;;;;;;3.70;2.47;;;5.60;99.90;;;;;;5045993;28;20709;-70
2023/10/18 04:35:56;;;;;;;2.63;2.42;;;5.60;99.90;;;;;;5026108;28;20266;-65
2023/10/18 04:38:29;;;;;;;3.50;2.53;;;5.60;99.90;;;;;;5031452;28;20208;-64
2023/10/18 04:41:07;;;;;;;2.00;1.85;;;5.70;99.90;;;;;;5018844;28;20216;-63
2023/10/18 04:43:35;;;;;;;3.58;2.72;;;5.60;99.90;;;;;;5018577;28;20235;-64
2023/10/18 04:46:11;;;;;;;2.53;2.17;;;5.70;99.90;;;;;;5018712;28;20593;-64
2023/10/18 04:51:43;;;;;;;2.55;2.35;;;5.70;99.90;;;;;;5018751;28;20219;-64
2023/10/18 04:54:15;;;;;;;3.83;2.60;;;5.70;99.90;;;;;;5018546;28;20632;-64
2023/10/18 04:56:45;;;;;;;3.45;3.15;;;5.70;99.90;;;;;;5019434;28;20224;-63
2023/10/18 04:59:26;;;;;;;3.20;2.95;;;5.80;99.90;;;;;;5019307;28;20294;-64
2023/10/18 05:01:58;;;;;;;4.13;3.05;;;5.80;99.90;;;;;;5018808;28;20208;-64
2023/10/18 05:04:29;;;;;;;3.95;2.90;;;5.80;99.90;;;;;;5019033;28;20247;-63
2023/10/18 05:07:00;;;;;;;4.05;2.92;;;5.70;99.90;;;;;;5018898;28;20209;-64
2023/10/18 05:09:34;;;;;;;3.65;2.83;;;5.80;99.90;;;;;;5018971;28;20212;-64
2023/10/18 05:12:16;;;;;;;3.28;2.40;;;5.80;99.90;;;;;;5019578;28;20266;-64
2023/10/18 05:14:50;;;;;;;3.17;2.88;;;5.80;99.90;;;;;;5019373;28;20725;-64
2023/10/18 05:17:23;;;;;;;4.05;3.10;;;5.80;99.90;;;;;;5019072;28;20223;-64
2023/10/18 05:19:55;;;;;;;3.75;3.38;;;5.80;99.90;;;;;;5018785;28;20304;-64
2023/10/18 05:22:25;;;;;;;6.32;3.50;;;5.70;99.90;;;;;;5019209;28;20216;-64
2023/10/18 05:24:57;;;;;;;3.97;2.70;;;5.80;99.90;;;;;;5019330;28;20733;-64
2023/10/18 05:27:27;;;;;;;3.90;3.50;;;5.80;99.90;;;;;;5018174;28;20331;-63
2023/10/18 05:29:57;;;;;;;3.42;3.13;;;5.80;99.90;;;;;;5017745;28;20209;-64
2023/10/18 05:32:38;;;;;;;5.10;3.17;;;5.80;99.90;;;;;;5017363;28;20209;-63
2023/10/18 05:35:21;;;;;;;3.55;3.25;;;5.80;99.90;;;;;;5018141;28;20238;-64
2023/10/18 05:37:59;;;;;;;4.20;2.88;;;5.80;99.90;;;;;;5018882;28;20200;-64
2023/10/18 05:40:42;;;;;;;6.03;3.40;;;5.80;99.90;;;;;;5017910;28;20216;-65
2023/10/18 05:43:22;;;;;;;5.65;4.15;;;5.80;99.90;;;;;;5018056;28;20201;-64
2023/10/18 05:45:55;;;;;;;3.95;3.55;;;5.80;99.90;;;;;;5018494;28;20200;-64
2023/10/18 05:48:24;;;;;;;3.30;3.00;;;5.80;99.90;;;;;;5020810;28;20213;-64
2023/10/18 05:51:02;;;;;;;4.20;3.80;;;5.80;99.90;;;;;;5021020;28;20204;-64
2023/10/18 05:53:31;;;;;;;4.40;3.20;;;5.80;99.90;;;;;;5021591;28;20228;-63
2023/10/18 05:55:59;;;;;;;4.40;3.80;;;5.80;99.90;;;;;;5021383;28;20228;-64
2023/10/18 05:58:27;;;;;;;5.57;3.63;;;5.80;99.90;;;;;;5021062;28;20278;-64
2023/10/18 06:00:57;;;;;;;3.65;3.35;;;5.80;99.90;;;;;;5031732;28;20201;-64
2023/10/18 06:03:26;;;;;;;5.50;3.53;;;5.80;99.90;;;;;;5040378;28;20600;-64
2023/10/18 06:05:55;;;;;;;4.10;3.80;;;5.80;99.90;;;;;;5028840;28;20200;-64
2023/10/18 06:08:24;;;;;;;4.35;3.50;;;5.80;99.90;;;;;;5028428;28;20668;-65
2023/10/18 06:11:00;;;;;;;7.63;5.65;;;5.80;99.90;;;;;;5053295;28;20200;-64
2023/10/18 06:13:28;;;;;;;4.55;4.03;;;5.80;99.90;;;;;;5035540;28;20228;-65
2023/10/18 06:15:58;;;;;;;4.90;4.10;;;5.80;99.90;;;;;;5027491;28;20242;-65
2023/10/18 06:18:30;;;;;;;7.40;4.45;;;5.80;99.90;;;;;;5039449;28;20230;-64
2023/10/18 06:21:06;;;;;;;5.80;5.20;;;5.80;99.90;;;;;;5036987;28;20199;-64
2023/10/18 06:23:40;;;;;;;5.53;4.20;;;5.90;99.90;;;;;;5027852;28;20633;-64
2023/10/18 06:26:28;;;;;;;8.63;4.32;;;5.90;99.90;;;;;;5030342;28;20197;-70
2023/10/18 06:29:00;;;;;;;6.40;4.95;;;6.20;99.90;;;;;;5017554;28;20259;-71
2023/10/18 06:31:29;;;;;;;7.60;4.70;;;7.30;99.90;;;;;;5038675;28;20240;-65
2023/10/18 06:33:59;;;;;;;4.75;4.15;;;7.70;99.90;;;;;;5021710;28;20240;-67
2023/10/18 06:36:32;;;;;;;6.00;4.90;;;7.40;99.90;;;;;;5029646;28;20244;-67
2023/10/18 06:39:00;;;;;;;6.97;4.18;;;7.10;99.90;;;;;;5021281;28;20200;-68
2023/10/18 06:41:30;;;;;;;5.75;4.28;;;6.80;99.90;;;;;;5018104;28;20193;-67
2023/10/18 06:43:59;;;;;;;5.63;4.53;;;6.60;99.90;;;;;;5017291;28;20768;-67
2023/10/18 06:46:27;;;;;;;4.95;4.03;;;6.50;99.90;;;;;;5049216;28;20197;-67
2023/10/18 06:48:58;;;;;;;6.45;5.38;;;6.50;99.90;;;;;;5029330;28;20775;-66
2023/10/18 06:51:33;;;;;;;5.53;4.97;;;6.50;99.90;;;;;;5026916;28;20200;-66
2023/10/18 06:54:04;;;;;;;5.85;4.60;;;6.40;99.90;;;;;;5027770;28;20232;-67
2023/10/18 06:56:39;;;;;;;6.82;5.55;;;6.50;99.90;;;;;;5046691;28;20226;-66
2023/10/18 06:59:07;;;;;;;8.23;4.90;;;6.50;99.90;;;;;;5025208;28;20205;-66
2023/10/18 07:01:41;;;;;;;8.07;4.80;;;6.50;99.90;;;;;;5022585;28;20220;-67
2023/10/18 07:04:18;;;;;;;6.82;4.57;;;6.60;99.90;;;;;;5045745;28;20224;-66
2023/10/18 07:06:46;;;;;;;6.65;5.50;;;6.60;99.90;;;;;;5021784;28;20212;-67
2023/10/18 07:09:25;;;;;;;6.97;5.22;;;6.80;99.90;;;;;;5024798;28;20211;-67
2023/10/18 07:12:03;;;;;;;6.25;5.10;;;6.90;99.90;;;;;;5018958;28;20882;-66
2023/10/18 07:14:31;;;;;;;7.80;4.85;;;7.00;99.90;;;;;;5051905;28;20224;-65
2023/10/18 07:17:04;;;;;;;6.80;5.65;;;7.10;99.90;;;;;;5027473;28;20217;-66
2023/10/18 07:19:41;;;;;;;6.18;4.80;;;7.20;99.90;;;;;;5020117;28;20205;-67
2023/10/18 07:22:17;;;;;;;6.13;4.53;;;7.40;99.90;;;;;;5036802;28;20216;-66
2023/10/18 07:24:53;;;;;;;5.75;5.13;;;7.40;99.90;;;;;;5021529;28;20225;-66
2023/10/18 07:27:29;;;;;;;5.90;4.90;;;7.50;99.90;;;;;;5028769;28;20193;-66
2023/10/18 07:29:59;;;;;;;7.00;4.80;;;7.60;99.90;;;;;;5012230;28;20574;-67
2023/10/18 07:32:28;;;;;;;7.32;5.55;;;7.60;99.90;;;;;;5019866;28;20208;-66
2023/10/18 07:35:00;;;;;;;7.50;5.43;;;7.70;99.90;;;;;;5027212;28;20252;-66
2023/10/18 07:37:40;;;;;;;7.47;5.30;;;7.80;99.90;;;;;;5019824;28;20220;-67
2023/10/18 07:40:10;;;;;;;6.03;5.43;;;7.90;99.90;;;;;;5011953;28;20672;-67
2023/10/18 07:42:43;;;;;;;7.75;5.70;;;8.10;99.90;;;;;;5011720;28;20205;-66
2023/10/18 07:45:14;;;;;;;5.55;4.32;;;8.20;99.90;;;;;;5028217;28;20703;-67
2023/10/18 07:47:43;;;;;;;5.72;4.57;;;8.40;99.90;;;;;;5028472;28;20283;-66
2023/10/18 07:52:54;;;;;;;5.45;4.85;;;8.50;99.90;;;;;;5030835;28;20574;-67
2023/10/18 07:55:22;;;;;;;6.50;5.05;;;8.60;99.90;;;;;;5046599;28;20207;-67
2023/10/18 07:57:54;;;;;;;6.00;3.80;;;8.70;99.90;;;;;;5015787;28;20715;-66
2023/10/18 08:00:23;;;;;;;5.15;4.65;;;8.80;99.90;;;;;;5032906;28;20695;-66
2023/10/18 08:02:50;;;;;;;7.13;4.80;;;8.80;99.90;;;;;;5019455;28;20263;-66
2023/10/18 08:05:22;;;;;;;7.47;5.30;;;9.00;99.90;;;;;;5013620;28;20217;-67
2023/10/18 08:07:52;;;;;;;5.45;4.85;;;9.00;99.90;;;;;;5016322;28;20232;-67
2023/10/18 08:10:21;;;;;;;4.85;4.15;;;9.20;99.90;;;;;;5029880;28;20209;-67
2023/10/18 08:13:03;;;;;;;5.55;4.93;;;9.30;99.90;;;;;;5047994;28;20200;-66
2023/10/18 08:15:36;;;;;;;7.35;4.10;;;9.50;99.90;;;;;;5026813;28;20212;-66
2023/10/18 08:18:14;;;;;;;8.15;5.40;;;9.70;99.90;;;;;;5035715;28;20220;-67
2023/10/18 08:20:56;;;;;;;4.95;4.43;;;9.80;99.90;;;;;;5015692;28;20208;-66
2023/10/18 08:23:35;;;;;;;4.50;3.88;;;9.70;99.90;;;;;;5030757;28;20706;-67
2023/10/18 08:26:07;;;;;;;4.10;3.70;;;9.90;99.90;;;;;;5018814;28;20196;-66
2023/10/18 08:28:39;;;;;;;4.90;4.40;;;9.90;99.90;;;;;;5042673;28;20204;-66
2023/10/18 08:31:17;;;;;;;4.18;3.22;;;9.80;99.90;;;;;;5011262;28;20288;-66
2023/10/18 08:33:45;;;;;;;6.05;4.60;;;9.90;99.90;;;;;;5037446;28;20244;-66
2023/10/18 08:36:16;;;;;;;5.32;3.55;;;10.00;99.90;;;;;;5010961;28;20205;-67
2023/10/18 08:38:44;;;;;;;3.58;3.10;;;10.10;99.90;;;;;;5045299;28;20223;-65
2023/10/18 08:41:15;;;;;;;4.90;4.15;;;10.20;99.90;;;;;;5034343;28;20282;-67
2023/10/18 08:43:53;;;;;;;6.15;4.60;;;10.20;99.90;;;;;;5050299;28;20227;-66
2023/10/18 08:46:26;;;;;;;5.80;4.43;;;10.40;99.90;;;;;;5034060;28;20261;-67
2023/10/18 08:48:56;;;;;;;4.03;3.50;;;10.60;99.90;;;;;;5035545;28;20580;-66
2023/10/18 08:51:27;;;;;;;5.22;3.15;;;10.70;99.90;;;;;;5036235;28;20720;-66
2023/10/18 08:53:57;;;;;;;4.88;3.53;;;10.60;99.90;;;;;;5028690;28;20242;-66
2023/10/18 08:56:32;;;;;;;4.60;3.90;;;10.70;99.90;;;;;;5017310;28;20208;-65
2023/10/18 08:59:07;;;;;;;4.22;3.83;;;10.70;99.90;;;;;;5033457;28;20242;-65
2023/10/18 09:01:37;;;;;;;4.30;3.03;;;10.70;99.90;;;;;;5034119;28;20218;-66
2023/10/18 09:04:07;;;;;;;4.03;3.45;;;10.70;99.90;;;;;;5018227;28;20311;-66
2023/10/18 09:06:35;;;;;;;3.55;2.95;;;10.60;99.90;;;;;;5010772;28;20274;-66
2023/10/18 09:09:05;;;;;;;4.40;3.75;;;10.60;99.90;;;;;;5018603;28;20617;-67
2023/10/18 09:11:36;;;;;;;3.22;2.85;;;10.70;99.90;;;;;;5010961;28;20348;-69
2023/10/18 09:14:10;;;;;;;3.38;2.92;;;10.90;99.90;;;;;;5025182;28;20227;-69
2023/10/18 09:16:41;;;;;;;3.22;2.92;;;10.90;99.90;;;;;;5026278;28;20217;-69
2023/10/18 09:19:10;;;;;;;3.42;2.63;;;11.00;99.90;;;;;;5035830;28;20564;-66
2023/10/18 09:21:44;;;;;;;4.35;3.40;;;11.10;99.90;;;;;;5039935;28;20670;-66
2023/10/18 09:24:13;;;;;;;5.95;3.28;;;11.10;99.90;;;;;;5014346;28;20224;-67
2023/10/18 09:26:44;;;;;;;4.00;2.97;;;11.20;99.90;;;;;;5039081;28;20212;-66
2023/10/18 09:29:12;;;;;;;3.22;2.95;;;11.20;99.90;;;;;;5029347;28;20263;-66
2023/10/18 09:31:52;;;;;;;4.82;3.35;;;11.00;99.90;;;;;;5030779;28;20205;-68
2023/10/18 09:34:23;;;;;;;3.92;2.92;;;10.90;99.90;;;;;;5065813;23;20220;-66
2023/10/18 09:36:56;;;;;;;3.72;3.40;;;11.10;99.90;;;;;;5053407;28;20215;-65
2023/10/18 09:39:37;;;;;;;3.83;3.00;;;11.50;99.90;;;;;;5047588;28;20224;-65
2023/10/18 09:42:06;;;;;;;3.88;3.58;;;11.90;99.90;;;;;;5053412;28;20804;-66
2023/10/18 09:44:34;;;;;;;5.03;3.67;;;12.40;99.90;;;;;;5053649;28;20297;-65
2023/10/18 09:47:04;;;;;;;3.97;3.40;;;12.60;99.90;;;;;;5053669;28;20211;-65
2023/10/18 09:49:34;;;;;;;3.90;3.45;;;12.50;99.90;;;;;;5053482;28;20208;-66
2023/10/18 09:52:07;;;;;;;4.13;3.67;;;12.50;99.90;;;;;;5053374;28;20685;-66
2023/10/18 09:54:36;;;;;;;3.75;3.42;;;12.70;99.90;;;;;;5053442;28;20310;-64
2023/10/18 09:57:07;;;;;;;3.47;2.42;;;12.70;99.90;;;;;;5053501;28;20214;-65
2023/10/18 09:59:38;;;;;;;3.10;2.90;;;12.80;99.90;;;;;;5053532;28;20224;-65
2023/10/18 10:02:09;;;;;;;2.85;2.65;;;13.10;99.90;;;;;;5053236;28;20204;-65
2023/10/18 10:04:38;;;;;;;7.13;3.97;;;13.30;99.90;;;;;;5049066;28;20315;-65
2023/10/18 10:09:59;;;;;;;3.90;3.10;;;13.30;99.90;;;;;;5053225;28;20674;-65
2023/10/18 10:12:28;;;;;;;3.08;2.75;;;13.40;99.90;;;;;;5053474;28;20253;-65
2023/10/18 10:14:58;;;;;;;3.38;2.67;;;13.40;99.90;;;;;;5052885;28;20223;-65
2023/10/18 10:17:30;;;;;;;2.70;2.50;;;13.30;99.90;;;;;;5052770;28;20200;-65
2023/10/18 10:20:10;;;;;;;3.67;2.90;;;13.50;99.90;;;;;;5052955;28;20247;-65
2023/10/18 10:22:41;;;;;;;3.30;3.00;;;13.40;99.90;;;;;;5048645;28;20733;-65
2023/10/18 10:25:19;;;;;;;2.92;2.72;;;13.40;99.90;;;;;;5052781;28;20216;-65
2023/10/18 10:28:14;;;;;;;3.55;3.25;;;13.20;99.90;;;;;;5052840;28;20283;-65
2023/10/18 10:30:43;;;;;;;4.72;4.05;;;13.00;99.90;;;;;;5053163;28;20203;-65
2023/10/18 10:33:13;;;;;;;3.45;3.15;;;12.70;99.90;;;;;;5051940;28;20200;-64
2023/10/18 10:35:46;;;;;;;3.55;3.05;;;12.50;99.90;;;;;;5052536;28;20243;-64
2023/10/18 10:38:18;;;;;;;3.78;3.47;;;12.50;99.90;;;;;;5044750;28;20299;-64
2023/10/18 10:40:49;;;;;;;3.50;2.75;;;12.40;99.90;;;;;;5052672;28;20210;-66
2023/10/18 10:43:19;;;;;;;2.42;2.22;;;12.60;99.90;;;;;;5045265;28;20246;-65
2023/10/18 10:45:54;;;;;;;4.07;3.67;;;12.90;99.90;;;;;;5052772;28;20271;-65
2023/10/18 10:48:37;;;;;;;3.92;3.47;;;13.20;99.90;;;;;;5047917;28;20199;-66
2023/10/18 10:51:11;;;;;;;7.53;3.15;;;13.70;99.90;;;;;;5052515;28;20294;-65
2023/10/18 10:53:49;;;;;;;3.50;3.20;;;13.90;99.90;;;;;;5052498;28;20203;-65
2023/10/18 10:56:21;;;;;;;3.08;2.50;;;13.80;99.90;;;;;;5044662;28;20203;-65
2023/10/18 10:58:55;;;;;;;3.92;3.53;;;13.60;99.90;;;;;;5052434;28;20242;-66
2023/10/18 11:02:05;;;;;;;3.08;2.75;;;13.60;99.90;;;;;;5046013;28;20204;-67
2023/10/18 11:04:50;;;;;;;3.08;2.75;;;13.80;99.90;;;;;;5046665;28;20246;-65
2023/10/18 11:07:25;;;;;;;3.53;2.55;;;14.00;99.90;;;;;;5052421;28;20211;-66
2023/10/18 11:09:59;;;;;;;2.00;1.90;;;14.10;99.90;;;;;;5052097;28;20290;-65
2023/10/18 11:12:29;;;;;;;4.88;3.70;;;14.30;99.90;;;;;;5052423;28;20208;-65
2023/10/18 11:15:00;;;;;;;3.10;2.90;;;14.20;99.90;;;;;;5052023;28;20247;-65
2023/10/18 11:17:29;;;;;;;3.60;3.30;;;14.10;99.90;;;;;;5052122;28;20713;-66
2023/10/18 11:19:59;;;;;;;3.50;2.75;;;14.20;99.90;;;;;;5051538;28;20230;-64
2023/10/18 11:22:31;;;;;;;3.88;2.50;;;14.10;99.90;;;;;;5052077;28;20204;-65
2023/10/18 11:25:00;;;;;;;2.75;2.20;;;13.90;99.90;;;;;;5051221;28;20228;-66
2023/10/18 11:27:33;;;;;;;5.32;3.28;;;13.90;99.90;;;;;;5052195;28;20204;-65
2023/10/18 11:30:15;;;;;;;4.53;2.95;;;13.70;99.90;;;;;;5051758;28;20207;-65
2023/10/18 11:32:44;;;;;;;4.55;3.13;;;13.80;99.90;;;;;;5051581;28;20218;-67
2023/10/18 11:35:18;;;;;;;2.88;2.53;;;13.90;99.90;;;;;;5051206;28;20239;-65
2023/10/18 11:37:47;;;;;;;2.90;2.70;;;13.90;99.90;;;;;;5051924;28;20301;-65
2023/10/18 11:40:18;;;;;;;2.22;2.05;;;14.00;99.90;;;;;;5051371;28;20691;-66
2023/10/18 11:42:54;;;;;;;7.72;3.08;;;14.20;99.90;;;;;;5051624;28;20200;-65
2023/10/18 11:45:27;;;;;;;2.50;2.30;;;14.30;99.90;;;;;;5050577;28;20215;-65
2023/10/18 11:47:56;;;;;;;3.80;2.67;;;14.40;99.90;;;;;;5051338;28;20219;-63
2023/10/18 11:50:39;;;;;;;2.55;2.35;;;14.50;99.90;;;;;;5051138;28;20279;-65
2023/10/18 11:53:12;;;;;;;4.00;2.75;;;14.80;99.90;;;;;;5050994;28;20212;-65
2023/10/18 11:55:55;;;;;;;2.38;2.15;;;15.30;99.90;;;;;;5050898;28;20299;-65
2023/10/18 11:58:24;;;;;;;3.03;2.17;;;15.50;99.90;;;;;;5043593;28;20196;-65
2023/10/18 12:00:58;;;;;;;3.17;2.10;;;15.70;99.90;;;;;;5051308;28;20682;-66
2023/10/18 12:03:27;;;;;;;2.33;2.13;;;16.00;99.90;;;;;;5044384;28;20207;-65
2023/10/18 12:05:59;;;;;;;3.40;2.45;;;16.10;99.90;;;;;;5050419;28;20712;-66
2023/10/18 12:08:30;;;;;;;2.10;1.90;;;16.20;99.90;;;;;;5051062;28;20211;-68
2023/10/18 12:10:58;;;;;;;1.90;1.77;;;16.40;99.90;;;;;;5051061;28;20200;-65
2023/10/18 12:13:26;;;;;;;3.50;2.25;;;16.30;99.90;;;;;;5051054;28;20659;-65
2023/10/18 12:16:00;;;;;;;2.50;2.30;;;16.30;99.90;;;;;;5050738;28;20581;-65
2023/10/18 12:18:28;;;;;;;2.35;2.15;;;16.50;99.90;;;;;;5043594;28;20204;-66
2023/10/18 12:20:58;;;;;;;2.38;1.75;;;16.60;99.90;;;;;;5050478;28;20220;-65
2023/10/18 12:23:26;;;;;;;2.30;1.92;;;16.70;99.90;;;;;;5050743;28;20294;-66
2023/10/18 12:25:54;;;;;;;1.42;1.30;;;16.60;99.90;;;;;;5050697;28;20204;-65
2023/10/18 12:28:28;;;;;;;3.70;1.60;;;16.60;99.90;;;;;;5050921;28;20254;-67
2023/10/18 12:31:00;;;;;;;4.82;1.50;;;16.60;99.90;;;;;;5050833;28;20697;-65
2023/10/18 12:33:29;;;;;;;1.98;1.77;;;16.60;99.90;;;;;;5043256;28;20258;-66
2023/10/18 12:35:59;;;;;;;1.38;1.15;;;16.50;99.90;;;;;;5050505;28;20254;-65
2023/10/18 12:38:32;;;;;;;1.75;1.30;;;16.30;99.90;;;;;;5042976;28;20204;-65
2023/10/18 12:41:05;;;;;;;1.33;0.98;;;16.00;99.90;;;;;;5050170;28;20242;-65
2023/10/18 12:43:38;;;;;;;3.20;1.63;;;16.00;99.90;;;;;;5050646;28;20212;-66
2023/10/18 12:46:07;;;;;;;1.85;1.65;;;15.70;99.90;;;;;;5050380;28;20737;-66
2023/10/18 12:48:35;;;;;;;1.27;1.17;;;15.50;99.90;;;;;;5050484;28;20203;-67
2023/10/18 12:51:09;;;;;;;3.85;1.52;;;15.40;99.90;;;;;;5050245;28;20211;-65
2023/10/18 12:53:41;;;;;;;2.50;1.25;;;15.40;99.90;;;;;;5050239;28;20214;-67
2023/10/18 12:56:31;;;;;;;2.22;1.60;;;15.20;99.90;;;;;;5050235;28;20212;-65
2023/10/18 12:59:11;;;;;;;5.50;3.28;;;15.10;99.90;;;;;;5050485;28;20302;-65
2023/10/18 13:01:44;;;;;;;3.13;1.52;;;15.00;99.90;;;;;;5043977;28;20207;-66
2023/10/18 13:04:17;;;;;;;2.00;1.38;;;15.00;99.90;;;;;;5050067;28;20261;-65
2023/10/18 13:06:47;;;;;;;5.20;1.80;;;15.10;99.90;;;;;;5050368;28;20266;-65
2023/10/18 13:09:16;;;;;;;1.45;1.20;;;15.20;99.90;;;;;;5050150;28;20618;-65
2023/10/18 13:11:46;;;;;;;1.70;1.50;;;15.30;99.90;;;;;;5050464;28;20211;-67
2023/10/18 13:14:14;;;;;;;1.75;1.63;;;15.10;99.90;;;;;;5050067;28;20231;-64
2023/10/18 13:16:43;;;;;;;1.83;1.63;;;15.00;99.90;;;;;;5050005;28;20246;-66
2023/10/18 13:19:14;;;;;;;1.40;1.27;;;14.90;99.90;;;;;;5050056;28;20200;-65
2023/10/18 13:21:43;;;;;;;2.97;1.40;;;14.90;99.90;;;;;;5050020;28;20214;-65
2023/10/18 13:24:28;;;;;;;3.05;1.40;;;14.70;99.90;;;;;;5049871;28;20310;-66
2023/10/18 13:27:00;;;;;;;2.65;1.45;;;14.60;99.90;;;;;;5050170;28;20206;-65